Fairfield, Vermont
Current Conditions -  °F | °C
As of 1:15 PM on Thursday 27 Nov 2014 (Local Time) from KFSO Reporting Station
Overcast Overcast  
Wind Chill: 23°   Ceiling: 3300
Heat Index: 28°   Visibility: 10mi
Dew Point: 20°   Wind: 5mph
Humidity: 71%   Direction: 350°N
Pressure: 30.02"   Gusts: NA
Location:  44.8°N, 72.95°W
Report Text: KFSO 271815Z AUTO 35004KT 10SM OVC033 M02/M07 A3002 RMK AO2 T10201066
Loading
Personal Weather Stations






























Interactive Weather Map New forecast layout! Learn more

10-Day Weather Forecast

Advertisements
Track Severe Weather on mobile